createdAt,value
2022-09-21T00:01:19.067Z,12.20
2022-09-21T00:03:47.440Z,12.20
2022-09-21T00:06:17.926Z,12.20
2022-09-21T00:08:46.995Z,12.10
2022-09-21T00:11:16.655Z,12.10
2022-09-21T00:13:46.853Z,12.10
2022-09-21T00:16:17.471Z,12.00
2022-09-21T00:18:45.775Z,12.00
2022-09-21T00:21:16.570Z,11.90
2022-09-21T00:23:45.549Z,11.90
2022-09-21T00:26:16.082Z,11.80
2022-09-21T00:28:44.613Z,11.80
2022-09-21T00:31:14.397Z,11.80
2022-09-21T00:33:44.593Z,11.80
2022-09-21T00:36:14.687Z,11.70
2022-09-21T00:38:42.819Z,11.60
2022-09-21T00:41:12.155Z,11.60
2022-09-21T00:43:46.414Z,11.50
2022-09-21T00:46:17.836Z,11.50
2022-09-21T00:48:47.645Z,11.40
2022-09-21T00:51:16.725Z,11.40
2022-09-21T00:53:45.308Z,11.40
2022-09-21T00:56:15.522Z,11.30
2022-09-21T00:58:49.598Z,11.30
2022-09-21T01:01:18.738Z,11.20
2022-09-21T01:03:50.593Z,11.20
2022-09-21T01:06:21.491Z,11.20
2022-09-21T01:08:53.886Z,11.20
2022-09-21T01:11:30.714Z,11.10
2022-09-21T01:14:27.011Z,11.10
2022-09-21T01:17:03.736Z,11.10
2022-09-21T01:19:59.642Z,11.00
2022-09-21T01:22:38.151Z,11.00
2022-09-21T01:25:13.140Z,11.00
2022-09-21T01:27:55.134Z,10.90
2022-09-21T01:30:25.361Z,10.80
2022-09-21T01:32:57.967Z,10.80
2022-09-21T01:35:30.110Z,10.80
2022-09-21T01:38:01.347Z,10.60
2022-09-21T01:40:35.660Z,10.60
2022-09-21T01:43:08.148Z,10.50
2022-09-21T01:45:41.400Z,10.40
2022-09-21T01:48:11.235Z,10.40
2022-09-21T01:50:44.960Z,10.40
2022-09-21T01:53:19.724Z,10.50
2022-09-21T01:55:53.373Z,10.50
2022-09-21T01:58:29.439Z,10.50
2022-09-21T02:01:00.366Z,10.40
2022-09-21T02:03:33.724Z,10.40
2022-09-21T02:06:03.445Z,10.40
2022-09-21T02:08:32.644Z,10.30
2022-09-21T02:11:02.660Z,10.30
2022-09-21T02:13:35.279Z,10.30
2022-09-21T02:16:20.851Z,10.30
2022-09-21T02:19:00.711Z,10.30
2022-09-21T02:21:34.245Z,10.20
2022-09-21T02:24:15.041Z,10.10
2022-09-21T02:26:50.101Z,10.10
2022-09-21T02:29:26.775Z,10.00
2022-09-21T02:32:05.285Z,10.00
2022-09-21T02:34:42.174Z,10.00
2022-09-21T02:37:19.723Z,10.00
2022-09-21T02:39:57.216Z,10.00
2022-09-21T02:42:29.780Z,10.00
2022-09-21T02:45:05.136Z,9.90
2022-09-21T02:47:40.104Z,9.90
2022-09-21T02:50:13.855Z,9.90
2022-09-21T02:52:44.553Z,9.90
2022-09-21T02:55:16.107Z,9.90
2022-09-21T02:57:45.518Z,9.80
2022-09-21T03:00:15.674Z,9.90
2022-09-21T03:02:47.174Z,9.80
2022-09-21T03:05:16.407Z,9.80
2022-09-21T03:07:44.782Z,9.80
2022-09-21T03:10:12.991Z,9.80
2022-09-21T03:12:46.261Z,9.80
2022-09-21T03:15:14.593Z,9.70
2022-09-21T03:17:44.139Z,9.70
2022-09-21T03:20:12.495Z,9.70
2022-09-21T03:22:40.567Z,9.70
2022-09-21T03:25:13.165Z,9.70
2022-09-21T03:27:42.973Z,9.70
2022-09-21T03:30:12.306Z,9.70
2022-09-21T03:32:40.458Z,9.70
2022-09-21T03:35:10.751Z,9.60
2022-09-21T03:37:41.301Z,9.60
2022-09-21T03:40:11.605Z,9.60
2022-09-21T03:42:40.207Z,9.50
2022-09-21T03:45:09.883Z,9.50
2022-09-21T03:47:38.189Z,9.50
2022-09-21T03:50:09.953Z,9.50
2022-09-21T03:52:39.866Z,9.40
2022-09-21T03:55:10.045Z,9.40
2022-09-21T03:57:38.816Z,9.40
2022-09-21T04:00:10.008Z,9.30
2022-09-21T04:02:40.490Z,9.30
2022-09-21T04:05:10.507Z,9.30
2022-09-21T04:07:40.814Z,9.20
2022-09-21T04:10:13.043Z,9.30
2022-09-21T04:12:43.794Z,9.30
2022-09-21T04:15:14.679Z,9.30
2022-09-21T04:17:43.140Z,8.20
2022-09-21T04:20:11.615Z,8.50
2022-09-21T04:22:43.716Z,8.80
2022-09-21T04:25:12.818Z,8.80
2022-09-21T04:27:41.828Z,8.90
2022-09-21T04:30:12.479Z,9.00
2022-09-21T04:32:40.919Z,9.00
2022-09-21T04:35:10.548Z,8.90
2022-09-21T04:37:40.384Z,8.90
2022-09-21T04:40:09.640Z,8.90
2022-09-21T04:42:37.810Z,8.90
2022-09-21T04:45:06.746Z,8.90
2022-09-21T04:47:34.857Z,8.80
2022-09-21T04:50:03.060Z,8.80
2022-09-21T04:52:31.299Z,8.80
2022-09-21T04:55:00.994Z,8.80
2022-09-21T04:57:29.302Z,8.80
2022-09-21T04:59:57.454Z,8.70
2022-09-21T05:02:25.646Z,8.80
2022-09-21T05:04:53.803Z,8.80
2022-09-21T05:07:21.960Z,8.80
2022-09-21T05:10:05.372Z,8.80
2022-09-21T05:12:40.899Z,8.80
2022-09-21T05:15:10.407Z,8.80
2022-09-21T05:17:38.587Z,8.80
2022-09-21T05:20:07.739Z,8.90
2022-09-21T05:22:35.898Z,8.80
2022-09-21T05:25:04.110Z,8.80
2022-09-21T05:27:32.495Z,8.80
2022-09-21T05:30:02.779Z,8.80
2022-09-21T05:32:42.801Z,8.70
2022-09-21T05:35:19.082Z,8.60
2022-09-21T05:37:58.022Z,8.50
2022-09-21T05:40:27.057Z,8.40
2022-09-21T05:42:56.355Z,8.40
2022-09-21T05:45:28.801Z,8.40
2022-09-21T05:48:03.368Z,8.50
2022-09-21T05:50:57.339Z,7.90
2022-09-21T05:53:45.985Z,8.20
2022-09-21T05:56:25.421Z,8.40
2022-09-21T05:59:03.151Z,8.50
2022-09-21T06:01:45.744Z,8.10
2022-09-21T06:04:14.338Z,8.40
2022-09-21T06:06:42.464Z,8.40
2022-09-21T06:09:10.590Z,8.50
2022-09-21T06:11:38.788Z,8.60
2022-09-21T06:14:07.345Z,8.70
2022-09-21T06:16:41.961Z,8.80
2022-09-21T06:19:12.996Z,8.80
2022-09-21T06:21:41.271Z,8.80
2022-09-21T06:24:09.497Z,8.90
2022-09-21T06:26:37.748Z,8.60
2022-09-21T06:29:06.115Z,8.70
2022-09-21T06:31:34.850Z,8.50
2022-09-21T06:34:05.085Z,8.10
2022-09-21T06:36:34.572Z,7.90
2022-09-21T06:39:02.955Z,8.00
2022-09-21T06:41:32.149Z,8.20
2022-09-21T06:44:01.380Z,8.10
2022-09-21T06:46:29.886Z,8.30
2022-09-21T06:48:58.427Z,8.00
2022-09-21T06:51:28.380Z,8.10
2022-09-21T06:53:58.106Z,8.20
2022-09-21T06:56:27.465Z,8.50
2022-09-21T06:58:57.016Z,8.50
2022-09-21T07:01:25.639Z,8.60
2022-09-21T07:03:54.704Z,8.60
2022-09-21T07:06:23.866Z,8.50
2022-09-21T07:11:43.364Z,8.40
2022-09-21T07:14:11.987Z,8.50
2022-09-21T07:16:40.547Z,8.60
2022-09-21T07:19:12.033Z,8.60
2022-09-21T07:21:41.069Z,8.60
2022-09-21T07:24:15.259Z,8.60
2022-09-21T07:26:43.593Z,8.60
2022-09-21T07:29:11.853Z,8.70
2022-09-21T07:31:40.190Z,8.80
2022-09-21T07:34:08.517Z,8.80
2022-09-21T07:36:36.820Z,8.90
2022-09-21T07:39:05.226Z,9.00
2022-09-21T07:41:35.173Z,9.10
2022-09-21T07:44:03.751Z,9.20
2022-09-21T07:46:32.169Z,9.20
2022-09-21T07:49:00.927Z,9.40
2022-09-21T07:51:29.070Z,9.50
2022-09-21T07:53:58.027Z,9.40
2022-09-21T07:56:26.783Z,9.50
2022-09-21T07:59:07.107Z,9.60
2022-09-21T08:01:36.421Z,9.60
2022-09-21T08:04:06.409Z,9.70
2022-09-21T08:06:36.223Z,9.70
2022-09-21T08:09:05.759Z,9.90
2022-09-21T08:11:34.909Z,10.00
2022-09-21T08:14:05.507Z,10.10
2022-09-21T08:16:34.173Z,10.30
2022-09-21T08:19:03.173Z,10.40
2022-09-21T08:21:31.278Z,10.40
2022-09-21T08:23:59.521Z,10.50
2022-09-21T08:26:28.018Z,10.60
2022-09-21T08:28:58.585Z,10.70
2022-09-21T08:31:28.443Z,10.80
2022-09-21T08:33:58.188Z,10.90
2022-09-21T08:36:26.748Z,10.90
2022-09-21T08:38:56.906Z,11.00
2022-09-21T08:41:29.534Z,11.10
2022-09-21T08:44:04.382Z,11.10
2022-09-21T08:46:37.060Z,11.30
2022-09-21T08:49:10.203Z,11.40
2022-09-21T08:51:45.857Z,11.50
2022-09-21T08:54:20.636Z,11.50
2022-09-21T08:57:04.597Z,11.70
2022-09-21T08:59:34.324Z,11.80
2022-09-21T09:02:14.620Z,11.90
2022-09-21T09:04:52.750Z,11.80
2022-09-21T09:07:35.772Z,11.90
2022-09-21T09:10:13.637Z,12.10
2022-09-21T09:12:56.304Z,12.20
2022-09-21T09:15:57.294Z,12.30
2022-09-21T09:18:38.133Z,12.50
2022-09-21T09:21:25.393Z,12.60
2022-09-21T09:24:04.163Z,12.70
2022-09-21T09:26:40.109Z,12.80
2022-09-21T09:29:17.256Z,13.00
2022-09-21T09:31:46.727Z,13.00
2022-09-21T09:34:20.807Z,13.00
2022-09-21T09:36:59.730Z,13.10
2022-09-21T09:39:31.976Z,13.20
2022-09-21T09:42:33.414Z,13.30
2022-09-21T09:45:26.572Z,13.40
2022-09-21T09:48:15.914Z,13.40
2022-09-21T09:50:46.280Z,13.50
2022-09-21T09:53:18.780Z,13.70
2022-09-21T09:55:49.616Z,13.70
2022-09-21T09:58:20.834Z,13.70
2022-09-21T10:00:53.744Z,13.80
2022-09-21T10:03:24.043Z,13.90
2022-09-21T10:05:54.144Z,13.90
2022-09-21T10:08:43.646Z,14.20
2022-09-21T10:11:14.515Z,14.20
2022-09-21T10:13:44.331Z,14.40
2022-09-21T10:16:17.101Z,14.50
2022-09-21T10:18:50.738Z,14.60
2022-09-21T10:21:24.544Z,14.90
2022-09-21T10:23:55.415Z,14.70
2022-09-21T10:26:24.452Z,14.90
2022-09-21T10:29:00.762Z,15.00
2022-09-21T10:31:31.171Z,15.00
2022-09-21T10:34:15.593Z,15.20
2022-09-21T10:36:52.492Z,15.20
2022-09-21T10:39:23.583Z,15.40
2022-09-21T10:41:55.054Z,15.40
2022-09-21T10:44:27.327Z,15.50
2022-09-21T10:46:57.432Z,15.30
2022-09-21T10:49:28.943Z,15.20
2022-09-21T10:52:00.686Z,15.20
2022-09-21T10:54:32.848Z,15.40
2022-09-21T10:57:04.235Z,15.60
2022-09-21T10:59:34.056Z,15.70
2022-09-21T11:02:03.630Z,15.80
2022-09-21T11:04:39.869Z,15.80
2022-09-21T11:07:18.899Z,16.00
2022-09-21T11:09:55.409Z,16.00
2022-09-21T11:12:35.446Z,16.20
2022-09-21T11:15:13.205Z,16.20
2022-09-21T11:17:47.257Z,16.20
2022-09-21T11:20:23.953Z,16.30
2022-09-21T11:23:01.752Z,16.10
2022-09-21T11:25:37.037Z,16.30
2022-09-21T11:28:14.277Z,16.20
2022-09-21T11:30:55.638Z,16.50
2022-09-21T11:33:46.792Z,16.50
2022-09-21T11:36:23.286Z,16.40
2022-09-21T11:39:01.963Z,16.50
2022-09-21T11:41:51.763Z,16.50
2022-09-21T11:44:33.074Z,16.70
2022-09-21T11:47:12.277Z,16.50
2022-09-21T11:50:29.243Z,16.70
2022-09-21T11:53:08.435Z,16.90
2022-09-21T11:55:49.452Z,16.90
2022-09-21T11:58:26.315Z,17.10
2022-09-21T12:01:05.457Z,17.00
2022-09-21T12:03:51.691Z,17.00
2022-09-21T12:06:39.921Z,17.10
2022-09-21T12:09:31.136Z,17.10
2022-09-21T12:12:08.784Z,17.10
2022-09-21T12:14:46.079Z,17.10
2022-09-21T12:17:23.585Z,17.20
2022-09-21T12:20:04.208Z,17.30
2022-09-21T12:22:36.807Z,17.20
2022-09-21T12:25:13.508Z,16.90
2022-09-21T12:27:47.991Z,16.90
2022-09-21T12:30:18.267Z,17.00
2022-09-21T12:32:53.670Z,16.90
2022-09-21T12:35:29.309Z,17.00
2022-09-21T12:38:02.535Z,17.30
2022-09-21T12:40:38.896Z,17.20
2022-09-21T12:43:17.544Z,17.50
2022-09-21T12:45:52.409Z,17.40
2022-09-21T12:48:30.954Z,17.40
2022-09-21T12:51:05.840Z,17.50
2022-09-21T12:53:37.742Z,17.80
2022-09-21T12:56:11.443Z,17.70
2022-09-21T12:58:52.234Z,18.00
2022-09-21T13:01:28.512Z,18.10
2022-09-21T13:04:12.583Z,17.90
2022-09-21T13:07:08.882Z,17.90
2022-09-21T13:09:42.152Z,17.60
2022-09-21T13:12:15.298Z,17.30
2022-09-21T13:14:47.487Z,17.30
2022-09-21T13:17:23.787Z,17.40
2022-09-21T13:20:00.338Z,17.50
2022-09-21T13:22:33.381Z,17.70
2022-09-21T13:25:05.915Z,17.70
2022-09-21T13:28:04.322Z,17.90
2022-09-21T13:30:37.603Z,18.20
2022-09-21T13:33:29.626Z,18.60
2022-09-21T13:36:29.114Z,19.00
2022-09-21T13:39:17.060Z,19.20
2022-09-21T13:42:02.235Z,18.90
2022-09-21T13:44:41.797Z,19.00
2022-09-21T13:47:14.263Z,19.50
2022-09-21T13:49:56.042Z,19.80
2022-09-21T13:52:39.610Z,20.20
2022-09-21T13:55:23.017Z,20.50
2022-09-21T13:57:55.443Z,20.70
2022-09-21T14:00:34.601Z,20.80
2022-09-21T14:03:07.583Z,20.60
2022-09-21T14:05:41.306Z,20.50
2022-09-21T14:08:26.178Z,20.70
2022-09-21T14:11:01.221Z,20.80
2022-09-21T14:13:35.482Z,21.00
2022-09-21T14:16:45.580Z,20.90
2022-09-21T14:19:47.580Z,20.30
2022-09-21T14:22:46.368Z,20.70
2022-09-21T14:25:32.424Z,20.60
2022-09-21T14:28:13.134Z,20.60
2022-09-21T14:30:49.154Z,20.70
2022-09-21T14:33:35.454Z,20.50
2022-09-21T14:36:09.719Z,19.90
2022-09-21T14:38:53.659Z,20.40
2022-09-21T14:41:33.427Z,20.80
2022-09-21T14:44:02.047Z,20.90
2022-09-21T14:46:54.778Z,20.90
2022-09-21T14:49:36.476Z,21.00
2022-09-21T14:52:24.756Z,20.70
2022-09-21T14:55:10.700Z,21.00
2022-09-21T14:58:04.877Z,21.10
2022-09-21T15:00:42.917Z,21.10
2022-09-21T15:03:45.371Z,21.20
2022-09-21T15:06:41.087Z,21.40
2022-09-21T15:09:49.500Z,21.50
2022-09-21T15:12:21.962Z,21.20
2022-09-21T15:15:01.610Z,21.00
2022-09-21T15:17:31.343Z,21.10
2022-09-21T15:20:00.928Z,21.30
2022-09-21T15:22:31.962Z,20.70
2022-09-21T15:25:05.978Z,20.50
2022-09-21T15:27:37.935Z,20.70
2022-09-21T15:30:20.243Z,21.00
2022-09-21T15:33:01.863Z,21.10
2022-09-21T15:35:32.701Z,21.20
2022-09-21T15:38:48.480Z,21.10
2022-09-21T15:41:41.301Z,21.20
2022-09-21T15:44:17.656Z,21.20
2022-09-21T15:46:52.504Z,21.40
2022-09-21T15:49:22.151Z,21.50
2022-09-21T15:51:54.126Z,21.50
2022-09-21T15:54:32.113Z,21.50
2022-09-21T15:57:05.933Z,21.50
2022-09-21T15:59:37.874Z,21.50
2022-09-21T16:02:18.559Z,21.40
2022-09-21T16:04:51.064Z,21.40
2022-09-21T16:07:32.165Z,21.20
2022-09-21T16:10:01.483Z,21.30
2022-09-21T16:12:40.549Z,21.30
2022-09-21T16:15:28.306Z,21.20
2022-09-21T16:18:01.415Z,21.10
2022-09-21T16:20:45.720Z,21.20
2022-09-21T16:23:17.239Z,20.70
2022-09-21T16:25:46.066Z,20.90
2022-09-21T16:28:35.939Z,20.90
2022-09-21T16:31:29.872Z,20.90
2022-09-21T16:34:07.909Z,20.90
2022-09-21T16:36:43.395Z,20.70
2022-09-21T16:39:17.439Z,20.50
2022-09-21T16:41:55.620Z,20.50
2022-09-21T16:44:26.302Z,20.40
2022-09-21T16:46:59.313Z,20.40
2022-09-21T16:49:32.780Z,20.30
2022-09-21T16:52:01.738Z,19.90
2022-09-21T16:54:31.214Z,19.80
2022-09-21T16:57:01.200Z,19.80
2022-09-21T16:59:30.438Z,19.80
2022-09-21T17:02:04.391Z,19.60
2022-09-21T17:04:35.435Z,19.50
2022-09-21T17:07:05.354Z,19.50
2022-09-21T17:09:35.736Z,19.40
2022-09-21T17:12:06.253Z,19.30
2022-09-21T17:14:36.235Z,19.30
2022-09-21T17:17:08.798Z,19.20
2022-09-21T17:19:37.235Z,19.10
2022-09-21T17:22:06.963Z,19.00
2022-09-21T17:24:52.555Z,18.90
2022-09-21T17:27:22.882Z,18.80
2022-09-21T17:29:54.093Z,18.80
2022-09-21T17:32:25.518Z,18.70
2022-09-21T17:34:58.783Z,18.60
2022-09-21T17:37:27.262Z,18.50
2022-09-21T17:39:55.497Z,18.40
2022-09-21T17:42:25.815Z,18.30
2022-09-21T17:45:13.863Z,18.20
2022-09-21T17:47:44.217Z,18.10
2022-09-21T17:50:24.121Z,18.00
2022-09-21T17:53:11.100Z,17.90
2022-09-21T17:55:40.292Z,17.80
2022-09-21T17:58:30.522Z,17.80
2022-09-21T18:01:07.440Z,17.70
2022-09-21T18:03:41.334Z,17.50
2022-09-21T18:06:11.243Z,17.40
2022-09-21T18:08:40.998Z,17.30
2022-09-21T18:11:27.116Z,17.20
2022-09-21T18:14:05.638Z,17.10
2022-09-21T18:16:42.902Z,16.90
2022-09-21T18:19:40.986Z,16.80
2022-09-21T18:22:18.059Z,16.70
2022-09-21T18:24:47.476Z,16.60
2022-09-21T18:27:20.090Z,16.50
2022-09-21T18:29:48.867Z,16.40
2022-09-21T18:32:44.466Z,16.30
2022-09-21T18:35:34.918Z,16.20
2022-09-21T18:38:15.977Z,16.20
2022-09-21T18:40:59.563Z,16.10
2022-09-21T18:43:35.045Z,16.10
2022-09-21T18:46:07.215Z,16.00
2022-09-21T18:48:50.727Z,15.90
2022-09-21T18:51:25.362Z,15.80
2022-09-21T18:53:56.144Z,15.80
2022-09-21T18:56:25.859Z,15.70
2022-09-21T18:58:54.836Z,15.60
2022-09-21T19:01:37.936Z,15.60
2022-09-21T19:04:07.775Z,15.50
2022-09-21T19:06:46.782Z,15.40
2022-09-21T19:09:52.471Z,15.30
2022-09-21T19:12:29.422Z,15.20
2022-09-21T19:15:12.333Z,15.10
2022-09-21T19:17:54.226Z,15.00
2022-09-21T19:20:42.037Z,14.90
2022-09-21T19:23:22.007Z,14.80
2022-09-21T19:25:53.976Z,14.70
2022-09-21T19:28:48.820Z,14.70
2022-09-21T19:31:19.668Z,14.60
2022-09-21T19:33:51.380Z,14.50
2022-09-21T19:36:20.679Z,14.50
2022-09-21T19:38:49.471Z,14.50
2022-09-21T19:41:36.246Z,14.50
2022-09-21T19:44:29.749Z,14.40
2022-09-21T19:47:06.594Z,14.30
2022-09-21T19:49:46.269Z,14.30
2022-09-21T19:52:17.936Z,14.20
2022-09-21T19:55:04.854Z,14.20
2022-09-21T19:58:06.723Z,14.10
2022-09-21T20:00:35.541Z,14.10
2022-09-21T20:03:07.433Z,14.00
2022-09-21T20:05:47.785Z,14.00
2022-09-21T20:08:22.542Z,13.90
2022-09-21T20:11:01.897Z,13.90
2022-09-21T20:13:43.067Z,13.80
2022-09-21T20:16:32.617Z,13.80
2022-09-21T20:19:09.791Z,13.80
2022-09-21T20:21:42.558Z,13.70
2022-09-21T20:24:21.270Z,13.60
2022-09-21T20:26:51.875Z,13.60
2022-09-21T20:29:22.047Z,13.50
2022-09-21T20:31:52.971Z,13.50
2022-09-21T20:34:21.864Z,13.50
2022-09-21T20:36:51.755Z,13.50
2022-09-21T20:39:19.957Z,13.40
2022-09-21T20:41:48.001Z,13.40
2022-09-21T20:44:16.197Z,13.40
2022-09-21T20:46:44.443Z,13.30
2022-09-21T20:49:15.409Z,13.30
2022-09-21T20:51:43.533Z,13.20
2022-09-21T20:54:13.070Z,13.30
2022-09-21T20:56:41.443Z,13.20
2022-09-21T20:59:09.592Z,13.20
2022-09-21T21:01:37.705Z,13.20
2022-09-21T21:04:05.966Z,13.10
2022-09-21T21:06:35.150Z,13.10
2022-09-21T21:09:03.317Z,13.10
2022-09-21T21:11:32.877Z,13.00
2022-09-21T21:14:01.151Z,12.90
2022-09-21T21:16:29.403Z,12.90
2022-09-21T21:18:57.754Z,12.90
2022-09-21T21:21:26.112Z,12.80
2022-09-21T21:24:11.927Z,12.80
2022-09-21T21:27:01.157Z,12.70
2022-09-21T21:29:29.737Z,12.60
2022-09-21T21:31:59.082Z,12.60
2022-09-21T21:34:27.362Z,12.60
2022-09-21T21:36:56.176Z,12.50
2022-09-21T21:39:24.710Z,12.50
2022-09-21T21:41:54.276Z,12.40
2022-09-21T21:44:22.617Z,12.40
2022-09-21T21:46:51.509Z,12.30
2022-09-21T21:49:19.728Z,12.30
2022-09-21T21:51:49.319Z,12.20
2022-09-21T21:54:18.332Z,12.20
2022-09-21T21:56:46.508Z,12.10
2022-09-21T21:59:17.879Z,12.00
2022-09-21T22:01:46.785Z,11.90
2022-09-21T22:04:15.587Z,12.00
2022-09-21T22:06:43.917Z,12.00
2022-09-21T22:09:14.829Z,11.90
2022-09-21T22:11:43.338Z,11.90
2022-09-21T22:14:11.836Z,11.90
2022-09-21T22:16:41.725Z,11.90
2022-09-21T22:19:10.412Z,11.80
2022-09-21T22:21:42.224Z,11.80
2022-09-21T22:24:11.069Z,11.80
2022-09-21T22:26:42.178Z,11.80
2022-09-21T22:29:11.990Z,11.80
2022-09-21T22:31:43.566Z,11.80
2022-09-21T22:34:12.641Z,11.80
2022-09-21T22:36:43.462Z,11.80
2022-09-21T22:39:12.437Z,11.70
2022-09-21T22:41:42.561Z,11.70
2022-09-21T22:44:11.661Z,11.60
2022-09-21T22:46:41.767Z,11.50
2022-09-21T22:49:10.120Z,11.40
2022-09-21T22:51:39.104Z,11.30
2022-09-21T22:54:07.562Z,11.30
2022-09-21T22:56:35.804Z,11.20
2022-09-21T22:59:05.431Z,11.20
2022-09-21T23:01:35.721Z,11.20
2022-09-21T23:04:06.943Z,11.20
2022-09-21T23:06:37.396Z,11.10
2022-09-21T23:09:08.126Z,11.10
2022-09-21T23:11:38.741Z,11.10
2022-09-21T23:14:07.062Z,11.10
2022-09-21T23:16:35.560Z,11.00
2022-09-21T23:19:05.231Z,11.00
2022-09-21T23:21:33.458Z,10.90
2022-09-21T23:24:03.036Z,10.80
2022-09-21T23:26:33.990Z,10.80
2022-09-21T23:29:04.359Z,10.80
2022-09-21T23:31:33.625Z,10.80
2022-09-21T23:34:07.376Z,10.80
2022-09-21T23:36:36.908Z,10.80
2022-09-21T23:39:07.098Z,10.60
2022-09-21T23:41:37.730Z,10.60
2022-09-21T23:44:06.381Z,10.60
2022-09-21T23:46:35.932Z,10.70
2022-09-21T23:49:04.841Z,10.50
2022-09-21T23:51:35.117Z,10.60
2022-09-21T23:54:03.427Z,10.60
2022-09-21T23:56:31.806Z,10.60
2022-09-21T23:59:00.390Z,10.60
